createdAt,value
2018-11-11T00:01:39.982Z,10.40
2018-11-11T00:04:11.564Z,10.30
2018-11-11T00:06:43.933Z,10.40
2018-11-11T00:09:15.177Z,10.40
2018-11-11T00:11:46.542Z,10.50
2018-11-11T00:14:17.321Z,10.50
2018-11-11T00:16:48.020Z,10.50
2018-11-11T00:19:18.765Z,10.50
2018-11-11T00:21:49.502Z,10.50
2018-11-11T00:24:20.290Z,10.50
2018-11-11T00:26:51.382Z,10.50
2018-11-11T00:29:21.839Z,10.50
2018-11-11T00:31:52.282Z,10.60
2018-11-11T00:34:22.937Z,10.70
2018-11-11T00:36:54.109Z,10.70
2018-11-11T00:39:24.505Z,10.60
2018-11-11T00:41:54.832Z,10.50
2018-11-11T00:44:25.627Z,10.40
2018-11-11T00:46:55.923Z,10.30
2018-11-11T00:49:26.551Z,10.30
2018-11-11T00:51:57.027Z,10.40
2018-11-11T00:54:27.439Z,10.40
2018-11-11T00:56:57.788Z,10.40
2018-11-11T00:59:28.245Z,10.40
2018-11-11T01:01:58.574Z,10.40
2018-11-11T01:04:29.442Z,10.40
2018-11-11T01:06:59.862Z,10.50
2018-11-11T01:09:30.586Z,10.50
2018-11-11T01:12:00.953Z,10.40
2018-11-11T01:14:31.612Z,10.40
2018-11-11T01:17:02.006Z,10.50
2018-11-11T01:19:32.415Z,10.50
2018-11-11T01:22:04.883Z,10.40
2018-11-11T01:24:35.314Z,10.40
2018-11-11T01:27:05.954Z,10.40
2018-11-11T01:29:36.329Z,10.50
2018-11-11T01:32:06.960Z,10.60
2018-11-11T01:34:37.473Z,10.60
2018-11-11T01:37:07.871Z,10.70
2018-11-11T01:39:38.227Z,10.60
2018-11-11T01:42:08.536Z,10.60
2018-11-11T01:44:39.050Z,10.30
2018-11-11T01:47:09.414Z,10.20
2018-11-11T01:49:39.705Z,10.10
2018-11-11T01:52:10.182Z,10.20
2018-11-11T01:54:40.973Z,10.20
2018-11-11T01:57:15.421Z,10.20
2018-11-11T01:59:46.167Z,10.20
2018-11-11T02:02:17.721Z,10.20
2018-11-11T02:04:48.286Z,10.10
2018-11-11T02:07:18.609Z,10.00
2018-11-11T02:09:49.071Z,10.00
2018-11-11T02:12:19.374Z,9.90
2018-11-11T02:14:49.859Z,9.80
2018-11-11T02:17:20.266Z,9.80
2018-11-11T02:19:51.091Z,9.90
2018-11-11T02:22:21.519Z,9.90
2018-11-11T02:24:52.114Z,9.90
2018-11-11T02:27:22.438Z,9.90
2018-11-11T02:29:53.778Z,9.90
2018-11-11T02:32:24.383Z,9.90
2018-11-11T02:34:54.726Z,10.00
2018-11-11T02:37:25.088Z,9.90
2018-11-11T02:39:55.340Z,10.00
2018-11-11T02:42:25.681Z,10.00
2018-11-11T02:44:56.026Z,10.00
2018-11-11T02:47:26.936Z,10.10
2018-11-11T02:49:57.628Z,10.20
2018-11-11T02:52:28.284Z,10.10
2018-11-11T02:54:59.006Z,10.20
2018-11-11T02:57:29.460Z,10.30
2018-11-11T03:00:02.004Z,10.40
2018-11-11T03:02:32.434Z,10.50
2018-11-11T03:05:02.941Z,10.50
2018-11-11T03:07:33.421Z,10.40
2018-11-11T03:10:03.912Z,10.30
2018-11-11T03:12:34.616Z,10.30
2018-11-11T03:15:06.608Z,10.10
2018-11-11T03:17:37.649Z,10.00
2018-11-11T03:20:10.143Z,10.00
2018-11-11T03:22:40.733Z,10.10
2018-11-11T03:25:13.267Z,10.10
2018-11-11T03:27:44.699Z,9.90
2018-11-11T03:30:16.488Z,9.90
2018-11-11T03:32:47.179Z,9.90
2018-11-11T03:35:19.925Z,9.80
2018-11-11T03:37:50.346Z,9.70
2018-11-11T03:40:22.323Z,9.70
2018-11-11T03:42:52.726Z,9.70
2018-11-11T03:45:23.196Z,9.80
2018-11-11T03:47:53.721Z,9.90
2018-11-11T03:50:24.275Z,10.10
2018-11-11T03:52:54.739Z,10.00
2018-11-11T03:55:25.313Z,10.00
2018-11-11T03:57:55.962Z,10.10
2018-11-11T04:00:26.495Z,10.10
2018-11-11T04:02:56.799Z,10.00
2018-11-11T04:05:27.334Z,9.90
2018-11-11T04:07:57.624Z,9.80
2018-11-11T04:10:28.112Z,9.70
2018-11-11T04:12:58.647Z,9.80
2018-11-11T04:15:29.162Z,9.80
2018-11-11T04:17:59.737Z,9.80
2018-11-11T04:20:30.160Z,10.00
2018-11-11T04:23:00.647Z,10.10
2018-11-11T04:25:31.224Z,10.20
2018-11-11T04:28:01.754Z,10.30
2018-11-11T04:30:32.267Z,10.20
2018-11-11T04:33:02.670Z,10.20
2018-11-11T04:35:33.070Z,10.10
2018-11-11T04:38:03.450Z,9.90
2018-11-11T04:40:33.850Z,10.00
2018-11-11T04:43:04.259Z,10.00
2018-11-11T04:45:34.624Z,10.00
2018-11-11T04:48:05.039Z,9.90
2018-11-11T04:50:35.416Z,9.90
2018-11-11T04:53:05.859Z,9.90
2018-11-11T04:55:36.309Z,10.00
2018-11-11T04:58:06.733Z,10.00
2018-11-11T05:00:37.163Z,10.10
2018-11-11T05:03:07.570Z,9.90
2018-11-11T05:05:37.957Z,9.80
2018-11-11T05:08:08.475Z,9.70
2018-11-11T05:10:38.931Z,9.70
2018-11-11T05:13:09.325Z,9.50
2018-11-11T05:15:39.965Z,9.60
2018-11-11T05:18:10.535Z,9.40
2018-11-11T05:20:40.967Z,9.40
2018-11-11T05:23:11.299Z,9.40
2018-11-11T05:25:41.685Z,9.50
2018-11-11T05:28:12.000Z,9.50
2018-11-11T05:30:42.364Z,9.60
2018-11-11T05:33:12.728Z,9.70
2018-11-11T05:35:43.395Z,9.70
2018-11-11T05:38:14.026Z,9.70
2018-11-11T05:40:44.346Z,9.80
2018-11-11T05:43:14.647Z,9.80
2018-11-11T05:45:45.033Z,9.90
2018-11-11T05:48:15.430Z,9.80
2018-11-11T05:50:45.858Z,9.70
2018-11-11T05:53:16.214Z,9.60
2018-11-11T05:55:46.557Z,9.70
2018-11-11T05:58:17.045Z,9.80
2018-11-11T06:00:47.475Z,9.80
2018-11-11T06:03:17.924Z,9.90
2018-11-11T06:05:48.310Z,9.90
2018-11-11T06:08:18.657Z,9.90
2018-11-11T06:10:49.013Z,9.90
2018-11-11T06:13:19.366Z,10.00
2018-11-11T06:15:49.773Z,9.90
2018-11-11T06:18:20.161Z,9.80
2018-11-11T06:20:50.776Z,9.90
2018-11-11T06:23:21.083Z,10.00
2018-11-11T06:25:51.443Z,10.00
2018-11-11T06:28:21.766Z,10.00
2018-11-11T06:30:52.371Z,10.00
2018-11-11T06:33:22.751Z,10.00
2018-11-11T06:35:53.329Z,10.00
2018-11-11T06:38:23.768Z,10.10
2018-11-11T06:40:54.214Z,10.10
2018-11-11T06:43:24.693Z,10.10
2018-11-11T06:45:54.990Z,10.00
2018-11-11T06:48:25.781Z,9.90
2018-11-11T06:50:57.331Z,9.90
2018-11-11T06:53:27.894Z,9.90
2018-11-11T06:55:58.350Z,9.80
2018-11-11T06:58:28.694Z,9.80
2018-11-11T07:00:59.097Z,9.90
2018-11-11T07:03:57.546Z,9.90
2018-11-11T07:06:28.679Z,9.80
2018-11-11T07:08:59.070Z,9.80
2018-11-11T07:11:30.262Z,9.80
2018-11-11T07:14:00.568Z,9.90
2018-11-11T07:16:30.947Z,9.90
2018-11-11T07:19:01.345Z,10.00
2018-11-11T07:21:31.704Z,10.00
2018-11-11T07:24:02.117Z,10.00
2018-11-11T07:26:32.524Z,10.00
2018-11-11T07:29:02.907Z,10.10
2018-11-11T07:31:33.527Z,10.10
2018-11-11T07:34:04.052Z,10.10
2018-11-11T07:36:35.231Z,10.10
2018-11-11T07:39:10.747Z,10.30
2018-11-11T07:41:41.216Z,10.40
2018-11-11T07:44:11.538Z,10.40
2018-11-11T07:46:41.866Z,10.40
2018-11-11T07:49:12.406Z,10.50
2018-11-11T07:51:43.014Z,10.60
2018-11-11T07:54:13.488Z,10.70
2018-11-11T07:56:43.926Z,10.80
2018-11-11T07:59:14.543Z,10.90
2018-11-11T08:01:45.139Z,11.00
2018-11-11T08:04:15.312Z,11.10
2018-11-11T08:06:46.064Z,11.10
2018-11-11T08:09:16.549Z,11.00
2018-11-11T08:12:04.939Z,11.00
2018-11-11T08:14:35.326Z,11.00
2018-11-11T08:17:05.698Z,11.00
2018-11-11T08:19:36.173Z,10.90
2018-11-11T08:22:08.418Z,10.90
2018-11-11T08:24:38.742Z,10.90
2018-11-11T08:27:09.077Z,10.70
2018-11-11T08:29:39.367Z,10.30
2018-11-11T08:32:10.363Z,10.20
2018-11-11T08:34:40.766Z,10.10
2018-11-11T08:37:11.048Z,10.10
2018-11-11T08:39:41.442Z,10.10
2018-11-11T08:42:11.766Z,10.20
2018-11-11T08:44:42.051Z,10.30
2018-11-11T08:47:12.367Z,10.30
2018-11-11T08:49:42.612Z,10.10
2018-11-11T08:52:13.870Z,10.20
2018-11-11T08:54:44.181Z,10.10
2018-11-11T08:57:19.421Z,10.10
2018-11-11T08:59:50.707Z,10.00
2018-11-11T09:02:21.263Z,10.10
2018-11-11T09:04:51.614Z,10.40
2018-11-11T09:07:22.014Z,10.60
2018-11-11T09:09:52.345Z,10.80
2018-11-11T09:12:22.668Z,10.90
2018-11-11T09:14:53.236Z,11.10
2018-11-11T09:17:23.542Z,11.30
2018-11-11T09:19:53.980Z,11.40
2018-11-11T09:22:24.559Z,11.60
2018-11-11T09:24:55.037Z,11.80
2018-11-11T09:27:25.538Z,12.00
2018-11-11T09:29:55.976Z,12.10
2018-11-11T09:32:26.394Z,12.30
2018-11-11T09:34:56.815Z,12.40
2018-11-11T09:37:27.318Z,12.60
2018-11-11T09:39:57.677Z,12.90
2018-11-11T09:42:28.976Z,13.10
2018-11-11T09:44:59.286Z,13.30
2018-11-11T09:47:29.963Z,13.30
2018-11-11T09:50:01.077Z,13.50
2018-11-11T09:52:31.476Z,13.50
2018-11-11T09:55:02.492Z,13.70
2018-11-11T09:57:33.649Z,13.90
2018-11-11T10:00:05.350Z,14.80
2018-11-11T10:02:35.772Z,16.10
2018-11-11T10:05:11.844Z,17.20
2018-11-11T10:07:50.412Z,18.30
2018-11-11T10:11:25.199Z,18.50
2018-11-11T10:14:01.150Z,17.60
2018-11-11T10:16:36.331Z,16.20
2018-11-11T10:20:10.216Z,15.60
2018-11-11T10:22:44.383Z,15.10
2018-11-11T10:25:23.654Z,14.60
2018-11-11T10:28:05.223Z,14.10
2018-11-11T10:31:45.411Z,13.80
2018-11-11T10:34:25.995Z,13.70
2018-11-11T10:37:03.215Z,13.50
2018-11-11T10:39:37.903Z,13.40
2018-11-11T10:42:14.090Z,13.30
2018-11-11T10:44:51.239Z,13.30
2018-11-11T10:47:32.352Z,13.40
2018-11-11T10:50:05.254Z,13.40
2018-11-11T10:52:35.760Z,13.50
2018-11-11T10:55:06.275Z,13.70
2018-11-11T10:57:36.826Z,13.70
2018-11-11T11:00:12.932Z,13.90
2018-11-11T11:02:49.300Z,14.00
2018-11-11T11:05:19.886Z,14.00
2018-11-11T11:07:50.370Z,14.20
2018-11-11T11:10:20.831Z,14.40
2018-11-11T11:12:51.289Z,14.40
2018-11-11T11:15:21.663Z,14.00
2018-11-11T11:17:52.020Z,13.90
2018-11-11T11:20:22.437Z,13.80
2018-11-11T11:22:52.914Z,13.70
2018-11-11T11:25:23.381Z,13.70
2018-11-11T11:27:53.818Z,13.60
2018-11-11T11:30:24.371Z,13.60
2018-11-11T11:32:54.813Z,13.60
2018-11-11T11:35:25.335Z,13.70
2018-11-11T11:37:55.822Z,13.70
2018-11-11T11:40:26.159Z,13.80
2018-11-11T11:42:56.671Z,13.90
2018-11-11T11:45:27.187Z,14.10
2018-11-11T11:47:57.709Z,14.10
2018-11-11T11:50:28.205Z,14.20
2018-11-11T11:52:58.673Z,14.40
2018-11-11T11:55:31.131Z,14.40
2018-11-11T11:58:20.151Z,14.50
2018-11-11T12:00:50.542Z,14.60
2018-11-11T12:03:20.969Z,14.70
2018-11-11T12:05:51.372Z,14.60
2018-11-11T12:08:21.768Z,14.40
2018-11-11T12:10:52.218Z,14.10
2018-11-11T12:13:22.640Z,13.90
2018-11-11T12:15:52.923Z,13.90
2018-11-11T12:18:23.297Z,14.10
2018-11-11T12:20:53.787Z,14.20
2018-11-11T12:23:24.261Z,14.10
2018-11-11T12:25:54.547Z,13.90
2018-11-11T12:28:28.605Z,13.80
2018-11-11T12:30:59.462Z,13.80
2018-11-11T12:33:30.338Z,13.80
2018-11-11T12:36:00.607Z,13.80
2018-11-11T12:38:32.080Z,13.80
2018-11-11T12:41:02.773Z,13.80
2018-11-11T12:43:34.166Z,13.80
2018-11-11T12:46:13.223Z,13.70
2018-11-11T12:48:44.422Z,13.70
2018-11-11T12:51:14.962Z,13.80
2018-11-11T12:53:45.387Z,13.90
2018-11-11T12:56:15.998Z,14.00
2018-11-11T12:58:46.610Z,13.90
2018-11-11T13:01:17.162Z,13.80
2018-11-11T13:03:47.829Z,13.70
2018-11-11T13:06:18.154Z,13.70
2018-11-11T13:08:49.312Z,13.80
2018-11-11T13:11:19.911Z,13.80
2018-11-11T13:13:50.353Z,13.90
2018-11-11T13:16:20.795Z,14.00
2018-11-11T13:18:51.262Z,14.00
2018-11-11T13:21:21.702Z,14.00
2018-11-11T13:23:52.058Z,14.00
2018-11-11T13:26:22.355Z,14.00
2018-11-11T13:28:52.659Z,14.00
2018-11-11T13:31:23.135Z,14.10
2018-11-11T13:33:53.554Z,14.10
2018-11-11T13:36:23.871Z,14.10
2018-11-11T13:38:54.442Z,13.90
2018-11-11T13:41:24.819Z,14.10
2018-11-11T13:43:55.199Z,14.20
2018-11-11T13:46:25.581Z,14.30
2018-11-11T13:48:55.825Z,14.20
2018-11-11T13:51:26.374Z,14.20
2018-11-11T13:53:56.718Z,14.30
2018-11-11T13:56:27.159Z,14.30
2018-11-11T13:59:01.667Z,14.40
2018-11-11T14:01:32.335Z,14.40
2018-11-11T14:04:03.649Z,14.40
2018-11-11T14:06:34.295Z,14.40
2018-11-11T14:09:11.237Z,14.40
2018-11-11T14:11:42.575Z,14.40
2018-11-11T14:14:13.137Z,14.40
2018-11-11T14:16:44.869Z,14.40
2018-11-11T14:19:16.307Z,14.50
2018-11-11T14:21:47.235Z,14.40
2018-11-11T14:24:19.087Z,14.40
2018-11-11T14:26:49.830Z,14.30
2018-11-11T14:29:21.706Z,14.20
2018-11-11T14:31:53.582Z,14.10
2018-11-11T14:34:29.257Z,14.10
2018-11-11T14:37:02.642Z,14.10
2018-11-11T14:39:33.927Z,14.10
2018-11-11T14:42:05.395Z,14.10
2018-11-11T14:44:37.400Z,14.10
2018-11-11T14:47:07.923Z,14.10
2018-11-11T14:49:46.961Z,14.10
2018-11-11T14:52:18.924Z,14.10
2018-11-11T14:54:50.534Z,14.10
2018-11-11T14:57:21.115Z,14.00
2018-11-11T14:59:51.908Z,14.00
2018-11-11T15:02:22.365Z,14.00
2018-11-11T15:04:52.719Z,14.10
2018-11-11T15:07:23.150Z,14.00
2018-11-11T15:09:55.811Z,13.90
2018-11-11T15:12:26.608Z,13.80
2018-11-11T15:14:59.338Z,13.70
2018-11-11T15:17:30.752Z,13.70
2018-11-11T15:20:01.164Z,13.40
2018-11-11T15:22:31.714Z,13.40
2018-11-11T15:25:02.390Z,13.40
2018-11-11T15:27:32.633Z,13.50
2018-11-11T15:30:03.132Z,13.50
2018-11-11T15:32:33.592Z,13.40
2018-11-11T15:35:04.266Z,13.40
2018-11-11T15:37:35.108Z,13.40
2018-11-11T15:40:08.864Z,13.40
2018-11-11T15:42:40.290Z,13.50
2018-11-11T15:45:14.823Z,13.40
2018-11-11T15:47:45.275Z,13.20
2018-11-11T15:50:17.963Z,13.20
2018-11-11T15:52:50.779Z,13.10
2018-11-11T15:55:23.393Z,12.80
2018-11-11T15:57:54.386Z,12.80
2018-11-11T16:00:26.374Z,12.90
2018-11-11T16:02:56.857Z,13.00
2018-11-11T16:05:27.209Z,13.10
2018-11-11T16:07:58.367Z,13.30
2018-11-11T16:10:31.367Z,13.30
2018-11-11T16:13:01.760Z,13.40
2018-11-11T16:15:34.886Z,13.50
2018-11-11T16:18:07.336Z,13.60
2018-11-11T16:20:38.232Z,13.70
2018-11-11T16:23:09.522Z,13.80
2018-11-11T16:25:40.900Z,13.60
2018-11-11T16:28:11.411Z,13.50
2018-11-11T16:30:43.512Z,13.30
2018-11-11T16:33:18.643Z,13.10
2018-11-11T16:35:49.540Z,13.10
2018-11-11T16:38:19.919Z,13.20
2018-11-11T16:40:51.320Z,13.30
2018-11-11T16:43:21.575Z,13.40
2018-11-11T16:45:54.008Z,13.50
2018-11-11T16:48:28.871Z,13.60
2018-11-11T16:51:07.014Z,13.70
2018-11-11T16:53:42.991Z,13.70
2018-11-11T16:56:14.498Z,13.80
2018-11-11T16:58:45.660Z,13.70
2018-11-11T17:01:16.091Z,13.60
2018-11-11T17:03:46.480Z,13.50
2018-11-11T17:06:20.007Z,13.50
2018-11-11T17:08:51.468Z,13.50
2018-11-11T17:11:23.984Z,13.60
2018-11-11T17:13:54.676Z,13.60
2018-11-11T17:16:26.326Z,13.60
2018-11-11T17:18:57.050Z,13.70
2018-11-11T17:21:27.473Z,13.80
2018-11-11T17:23:57.782Z,13.80
2018-11-11T17:26:28.134Z,13.80
2018-11-11T17:28:58.687Z,13.80
2018-11-11T17:31:29.250Z,13.80
2018-11-11T17:33:59.652Z,13.80
2018-11-11T17:36:30.687Z,13.80
2018-11-11T17:39:01.796Z,13.80
2018-11-11T17:41:32.318Z,13.80
2018-11-11T17:44:03.130Z,13.80
2018-11-11T17:46:34.486Z,13.70
2018-11-11T17:49:05.036Z,13.60
2018-11-11T17:51:35.648Z,13.60
2018-11-11T17:54:06.085Z,13.50
2018-11-11T17:56:36.494Z,13.40
2018-11-11T17:59:07.281Z,13.40
2018-11-11T18:01:37.688Z,13.30
2018-11-11T18:04:08.078Z,13.20
2018-11-11T18:06:38.545Z,13.20
2018-11-11T18:09:10.834Z,13.10
2018-11-11T18:11:41.267Z,13.10
2018-11-11T18:14:11.826Z,13.10
2018-11-11T18:16:42.582Z,13.10
2018-11-11T18:19:13.412Z,13.10
2018-11-11T18:21:44.162Z,13.00
2018-11-11T18:24:14.967Z,12.90
2018-11-11T18:26:46.178Z,12.90
2018-11-11T18:29:16.813Z,12.70
2018-11-11T18:31:50.384Z,12.70
2018-11-11T18:34:21.105Z,12.60
2018-11-11T18:36:51.575Z,12.60
2018-11-11T18:39:23.169Z,12.60
2018-11-11T18:41:54.134Z,12.50
2018-11-11T18:44:25.393Z,12.50
2018-11-11T18:46:56.700Z,12.50
2018-11-11T18:49:29.153Z,12.50
2018-11-11T18:52:00.772Z,12.50
2018-11-11T18:54:34.071Z,12.50
2018-11-11T18:57:04.873Z,12.50
2018-11-11T18:59:37.840Z,12.50
2018-11-11T19:02:08.441Z,12.50
2018-11-11T19:04:46.234Z,12.60
2018-11-11T19:07:16.739Z,12.60
2018-11-11T19:09:47.351Z,12.60
2018-11-11T19:12:20.467Z,12.60
2018-11-11T19:14:51.047Z,12.60
2018-11-11T19:17:21.675Z,12.60
2018-11-11T19:19:52.645Z,12.60
2018-11-11T19:22:23.268Z,12.50
2018-11-11T19:24:54.031Z,12.50
2018-11-11T19:27:25.939Z,12.40
2018-11-11T19:29:56.727Z,12.40
2018-11-11T19:32:29.299Z,12.20
2018-11-11T19:35:01.513Z,12.20
2018-11-11T19:37:33.257Z,12.10
2018-11-11T19:40:11.149Z,12.10
2018-11-11T19:42:46.293Z,12.00
2018-11-11T19:45:19.283Z,12.00
2018-11-11T19:47:49.796Z,11.90
2018-11-11T19:50:22.732Z,12.00
2018-11-11T19:52:54.402Z,12.00
2018-11-11T19:55:25.162Z,12.00
2018-11-11T19:57:55.620Z,12.00
2018-11-11T20:00:30.903Z,11.90
2018-11-11T20:03:03.046Z,12.00
2018-11-11T20:05:33.392Z,11.90
2018-11-11T20:08:04.041Z,11.80
2018-11-11T20:10:34.566Z,11.60
2018-11-11T20:13:07.340Z,11.50
2018-11-11T20:15:37.815Z,11.40
2018-11-11T20:18:10.748Z,11.40
2018-11-11T20:20:41.209Z,11.30
2018-11-11T20:23:11.568Z,11.20
2018-11-11T20:25:42.031Z,11.30
2018-11-11T20:28:14.375Z,11.40
2018-11-11T20:30:48.333Z,11.30
2018-11-11T20:33:19.356Z,11.40
2018-11-11T20:35:51.882Z,11.40
2018-11-11T20:38:22.215Z,11.30
2018-11-11T20:40:54.583Z,11.40
2018-11-11T20:43:25.406Z,11.40
2018-11-11T20:45:57.662Z,11.50
2018-11-11T20:48:29.052Z,11.50
2018-11-11T20:51:00.210Z,11.40
2018-11-11T20:53:30.933Z,11.30
2018-11-11T20:56:02.591Z,11.40
2018-11-11T20:58:34.945Z,11.20
2018-11-11T21:01:09.301Z,11.10
2018-11-11T21:03:41.478Z,11.00
2018-11-11T21:06:12.396Z,11.00
2018-11-11T21:08:50.260Z,11.10
2018-11-11T21:11:48.418Z,11.10
2018-11-11T21:17:49.817Z,11.00
2018-11-11T21:20:35.173Z,11.00
2018-11-11T21:26:35.640Z,11.10
2018-11-11T21:29:15.060Z,11.10
2018-11-11T21:31:48.486Z,11.20
2018-11-11T21:34:25.800Z,11.20
2018-11-11T21:37:06.539Z,11.20
2018-11-11T21:39:41.071Z,11.20
2018-11-11T21:42:14.072Z,11.10
2018-11-11T21:44:54.016Z,11.10
2018-11-11T21:47:29.892Z,11.00
2018-11-11T21:50:01.068Z,10.90
2018-11-11T21:52:36.471Z,11.00
2018-11-11T21:55:28.546Z,11.00
2018-11-11T21:58:02.739Z,11.00
2018-11-11T22:00:34.710Z,11.10
2018-11-11T22:03:06.172Z,11.00
2018-11-11T22:05:36.626Z,11.00
2018-11-11T22:11:26.728Z,10.90
2018-11-11T22:14:06.967Z,10.90
2018-11-11T22:16:40.873Z,10.90
2018-11-11T22:19:16.687Z,10.80
2018-11-11T22:21:47.495Z,10.70
2018-11-11T22:24:25.616Z,10.60
2018-11-11T22:27:03.314Z,10.60
2018-11-11T22:30:08.023Z,10.40
2018-11-11T22:32:48.712Z,10.50
2018-11-11T22:35:27.154Z,10.40
2018-11-11T22:37:59.457Z,10.40
2018-11-11T22:40:36.520Z,10.30
2018-11-11T22:43:16.470Z,10.30
2018-11-11T22:45:50.688Z,10.20
2018-11-11T22:51:10.903Z,10.20
2018-11-11T22:53:42.672Z,10.20
2018-11-11T22:56:14.256Z,10.20
2018-11-11T22:58:45.037Z,10.00
2018-11-11T23:01:19.330Z,9.90
2018-11-11T23:03:50.352Z,9.90
2018-11-11T23:06:21.428Z,10.00
2018-11-11T23:08:53.611Z,10.00
2018-11-11T23:11:24.551Z,10.10
2018-11-11T23:14:01.183Z,10.10
2018-11-11T23:16:32.189Z,10.10
2018-11-11T23:19:03.938Z,10.20
2018-11-11T23:21:34.776Z,10.10
2018-11-11T23:24:06.221Z,10.10
2018-11-11T23:26:37.642Z,10.10
2018-11-11T23:29:08.010Z,10.20
2018-11-11T23:31:38.443Z,10.20
2018-11-11T23:34:10.033Z,10.20
2018-11-11T23:36:40.470Z,10.20
2018-11-11T23:39:11.598Z,10.20
2018-11-11T23:41:43.009Z,10.20
2018-11-11T23:44:13.571Z,10.20
2018-11-11T23:46:44.298Z,10.30
2018-11-11T23:49:15.380Z,10.30
2018-11-11T23:51:47.501Z,10.30
2018-11-11T23:54:17.953Z,10.10
2018-11-11T23:56:49.309Z,10.10
2018-11-11T23:59:20.601Z,10.00
